Lees Creek, Ohio
Current Conditions -  °F | °C
As of 3:54 PM on Saturday 22 Nov 2014 (Local Time) from KILN Reporting Station
Overcast Overcast  
Wind Chill: 53°   Ceiling: 9500
Heat Index: 53°   Visibility: 10mi
Dew Point: 38°   Wind: 13mph
Humidity: 57%   Direction: 200°SSW
Pressure: 30.11"   Gusts: NA
Location:  39.42°N, 83.65°W
Report Text: KILN 222054Z AUTO 20011KT 10SM OVC095 12/03 A3011 RMK AO2 SLP211 T01170033 56022
Loading
Personal Weather Stations






























Interactive Weather Map New forecast layout! Learn more

10-Day Weather Forecast

Advertisements
Track Severe Weather on mobile